sensor_id;sensor_type;location;lat;lon;timestamp;pressure;altitude;pressure_sealevel;temperature;humidity
72118;BME280;59992;47.490;8.736;2023-03-23T00:01:51;96166.64;;;8.55;74.27
72118;BME280;59992;47.490;8.736;2023-03-23T00:04:39;96165.96;;;8.51;76.15
72118;BME280;59992;47.490;8.736;2023-03-23T00:07:30;96164.27;;;8.48;75.32
72118;BME280;59992;47.490;8.736;2023-03-23T00:10:18;96165.75;;;8.46;74.25
72118;BME280;59992;47.490;8.736;2023-03-23T00:13:06;96164.81;;;8.44;75.41
72118;BME280;59992;47.490;8.736;2023-03-23T00:15:55;96166.91;;;8.43;75.52
72118;BME280;59992;47.490;8.736;2023-03-23T00:18:45;96161.95;;;8.40;75.95
72118;BME280;59992;47.490;8.736;2023-03-23T00:21:35;96164.55;;;8.36;76.81
72118;BME280;59992;47.490;8.736;2023-03-23T00:24:24;96161.73;;;8.35;76.59
72118;BME280;59992;47.490;8.736;2023-03-23T00:27:12;96163.69;;;8.34;75.66
72118;BME280;59992;47.490;8.736;2023-03-23T00:30:02;96157.48;;;8.33;73.33
72118;BME280;59992;47.490;8.736;2023-03-23T00:32:50;96157.48;;;8.32;76.39
72118;BME280;59992;47.490;8.736;2023-03-23T00:35:38;96154.04;;;8.30;76.51
72118;BME280;59992;47.490;8.736;2023-03-23T00:38:27;96158.40;;;8.29;77.70
72118;BME280;59992;47.490;8.736;2023-03-23T00:41:15;96161.46;;;8.27;77.69
72118;BME280;59992;47.490;8.736;2023-03-23T00:44:03;96165.67;;;8.26;77.80
72118;BME280;59992;47.490;8.736;2023-03-23T00:46:52;96161.17;;;8.24;77.54
72118;BME280;59992;47.490;8.736;2023-03-23T00:49:43;96157.22;;;8.22;76.75
72118;BME280;59992;47.490;8.736;2023-03-23T00:52:31;96155.84;;;8.20;77.84
72118;BME280;59992;47.490;8.736;2023-03-23T00:55:19;96150.48;;;8.21;75.66
72118;BME280;59992;47.490;8.736;2023-03-23T00:58:07;96144.96;;;8.20;75.53
72118;BME280;59992;47.490;8.736;2023-03-23T01:00:56;96145.05;;;8.17;78.23
72118;BME280;59992;47.490;8.736;2023-03-23T01:03:44;96143.52;;;8.18;78.01
72118;BME280;59992;47.490;8.736;2023-03-23T01:06:33;96140.14;;;8.16;78.25
72118;BME280;59992;47.490;8.736;2023-03-23T01:09:22;96139.59;;;8.14;79.05
72118;BME280;59992;47.490;8.736;2023-03-23T01:12:12;96124.67;;;8.15;77.52
72118;BME280;59992;47.490;8.736;2023-03-23T01:15:00;96131.38;;;8.15;76.98
72118;BME280;59992;47.490;8.736;2023-03-23T01:17:49;96130.58;;;8.16;76.27
72118;BME280;59992;47.490;8.736;2023-03-23T01:20:37;96130.42;;;8.17;76.34
72118;BME280;59992;47.490;8.736;2023-03-23T01:23:25;96122.33;;;8.15;78.89
72118;BME280;59992;47.490;8.736;2023-03-23T01:26:15;96113.22;;;8.16;78.16
72118;BME280;59992;47.490;8.736;2023-03-23T01:29:03;96114.60;;;8.18;77.51
72118;BME280;59992;47.490;8.736;2023-03-23T01:31:52;96117.86;;;8.18;77.88
72118;BME280;59992;47.490;8.736;2023-03-23T01:34:40;96115.38;;;8.19;76.73
72118;BME280;59992;47.490;8.736;2023-03-23T01:37:28;96113.29;;;8.21;78.45
72118;BME280;59992;47.490;8.736;2023-03-23T01:40:17;96113.27;;;8.24;77.27
72118;BME280;59992;47.490;8.736;2023-03-23T01:43:10;96110.16;;;8.27;76.56
72118;BME280;59992;47.490;8.736;2023-03-23T01:46:01;96106.66;;;8.30;75.88
72118;BME280;59992;47.490;8.736;2023-03-23T01:48:49;96105.94;;;8.32;74.95
72118;BME280;59992;47.490;8.736;2023-03-23T01:51:42;96108.65;;;8.32;78.08
72118;BME280;59992;47.490;8.736;2023-03-23T01:54:31;96113.79;;;8.33;78.57
72118;BME280;59992;47.490;8.736;2023-03-23T01:57:21;96120.29;;;8.33;78.91
72118;BME280;59992;47.490;8.736;2023-03-23T02:00:12;96127.02;;;8.34;79.37
72118;BME280;59992;47.490;8.736;2023-03-23T02:03:02;96126.52;;;8.36;79.35
72118;BME280;59992;47.490;8.736;2023-03-23T02:05:51;96125.56;;;8.38;77.81
72118;BME280;59992;47.490;8.736;2023-03-23T02:08:40;96126.88;;;8.40;77.37
72118;BME280;59992;47.490;8.736;2023-03-23T02:11:32;96129.69;;;8.41;78.25
72118;BME280;59992;47.490;8.736;2023-03-23T02:14:20;96130.90;;;8.41;78.17
72118;BME280;59992;47.490;8.736;2023-03-23T02:17:12;96140.87;;;8.42;77.63
72118;BME280;59992;47.490;8.736;2023-03-23T02:20:16;96142.18;;;8.45;77.07
72118;BME280;59992;47.490;8.736;2023-03-23T02:23:43;96141.70;;;8.48;77.49
72118;BME280;59992;47.490;8.736;2023-03-23T02:26:43;96150.09;;;8.48;78.47
72118;BME280;59992;47.490;8.736;2023-03-23T02:29:53;96153.18;;;8.50;78.71
72118;BME280;59992;47.490;8.736;2023-03-23T02:33:07;96163.56;;;8.51;79.05
72118;BME280;59992;47.490;8.736;2023-03-23T02:35:59;96157.25;;;8.53;78.79
72118;BME280;59992;47.490;8.736;2023-03-23T02:38:55;96156.89;;;8.55;78.33
72118;BME280;59992;47.490;8.736;2023-03-23T02:41:47;96152.64;;;8.58;77.02
72118;BME280;59992;47.490;8.736;2023-03-23T02:44:39;96140.15;;;8.60;76.74
72118;BME280;59992;47.490;8.736;2023-03-23T02:47:29;96131.16;;;8.60;77.63
72118;BME280;59992;47.490;8.736;2023-03-23T02:50:21;96113.63;;;8.59;77.31
72118;BME280;59992;47.490;8.736;2023-03-23T02:53:11;96110.89;;;8.58;77.05
72118;BME280;59992;47.490;8.736;2023-03-23T02:56:01;96100.69;;;8.56;76.45
72118;BME280;59992;47.490;8.736;2023-03-23T02:58:52;96097.81;;;8.57;77.28
72118;BME280;59992;47.490;8.736;2023-03-23T03:02:01;96095.58;;;8.58;78.14
72118;BME280;59992;47.490;8.736;2023-03-23T03:04:58;96097.11;;;8.60;79.09
72118;BME280;59992;47.490;8.736;2023-03-23T03:07:59;96093.30;;;8.64;78.31
72118;BME280;59992;47.490;8.736;2023-03-23T03:10:54;96090.23;;;8.65;79.45
72118;BME280;59992;47.490;8.736;2023-03-23T03:13:47;96085.30;;;8.69;78.42
72118;BME280;59992;47.490;8.736;2023-03-23T03:16:43;96079.91;;;8.73;78.78
72118;BME280;59992;47.490;8.736;2023-03-23T03:19:36;96073.75;;;8.76;78.66
72118;BME280;59992;47.490;8.736;2023-03-23T03:22:26;96072.44;;;8.80;77.69
72118;BME280;59992;47.490;8.736;2023-03-23T03:25:17;96063.48;;;8.82;77.64
72118;BME280;59992;47.490;8.736;2023-03-23T03:28:05;96066.59;;;8.83;78.11
72118;BME280;59992;47.490;8.736;2023-03-23T03:30:55;96070.02;;;8.85;77.82
72118;BME280;59992;47.490;8.736;2023-03-23T03:33:44;96070.50;;;8.88;76.65
72118;BME280;59992;47.490;8.736;2023-03-23T03:36:35;96072.96;;;8.92;76.37
72118;BME280;59992;47.490;8.736;2023-03-23T03:39:25;96065.46;;;8.97;76.39
72118;BME280;59992;47.490;8.736;2023-03-23T03:42:14;96061.73;;;9.01;77.32
72118;BME280;59992;47.490;8.736;2023-03-23T03:45:02;96058.31;;;9.06;75.67
72118;BME280;59992;47.490;8.736;2023-03-23T03:47:51;96048.64;;;9.12;74.32
72118;BME280;59992;47.490;8.736;2023-03-23T03:50:39;96047.96;;;9.21;73.49
72118;BME280;59992;47.490;8.736;2023-03-23T03:53:28;96048.95;;;9.29;73.83
72118;BME280;59992;47.490;8.736;2023-03-23T03:56:16;96053.63;;;9.36;73.54
72118;BME280;59992;47.490;8.736;2023-03-23T03:59:04;96050.50;;;9.41;72.77
72118;BME280;59992;47.490;8.736;2023-03-23T04:01:53;96049.44;;;9.50;72.36
72118;BME280;59992;47.490;8.736;2023-03-23T04:04:41;96048.75;;;9.57;72.40
72118;BME280;59992;47.490;8.736;2023-03-23T04:07:30;96046.92;;;9.64;71.55
72118;BME280;59992;47.490;8.736;2023-03-23T04:10:19;96046.67;;;9.71;71.62
72118;BME280;59992;47.490;8.736;2023-03-23T04:13:09;96049.97;;;9.76;71.96
72118;BME280;59992;47.490;8.736;2023-03-23T04:15:57;96048.32;;;9.78;72.08
72118;BME280;59992;47.490;8.736;2023-03-23T04:18:45;96046.22;;;9.82;71.32
72118;BME280;59992;47.490;8.736;2023-03-23T04:21:36;96048.59;;;9.85;71.46
72118;BME280;59992;47.490;8.736;2023-03-23T04:24:24;96046.34;;;9.86;71.63
72118;BME280;59992;47.490;8.736;2023-03-23T04:27:15;96040.59;;;9.87;71.81
72118;BME280;59992;47.490;8.736;2023-03-23T04:30:06;96042.50;;;9.89;71.11
72118;BME280;59992;47.490;8.736;2023-03-23T04:32:55;96033.42;;;9.90;72.05
72118;BME280;59992;47.490;8.736;2023-03-23T04:35:44;96029.42;;;9.91;70.41
72118;BME280;59992;47.490;8.736;2023-03-23T04:38:33;96030.97;;;9.95;70.91
72118;BME280;59992;47.490;8.736;2023-03-23T04:41:21;96036.88;;;9.98;71.57
72118;BME280;59992;47.490;8.736;2023-03-23T04:44:09;96036.59;;;9.98;71.58
72118;BME280;59992;47.490;8.736;2023-03-23T04:46:59;96034.16;;;9.98;72.46
72118;BME280;59992;47.490;8.736;2023-03-23T04:49:49;96036.20;;;9.97;71.09
72118;BME280;59992;47.490;8.736;2023-03-23T04:52:38;96032.88;;;9.99;70.62
72118;BME280;59992;47.490;8.736;2023-03-23T04:55:27;96032.20;;;9.98;71.53
72118;BME280;59992;47.490;8.736;2023-03-23T04:58:17;96034.66;;;9.95;71.52
72118;BME280;59992;47.490;8.736;2023-03-23T05:01:05;96033.21;;;9.93;70.94
72118;BME280;59992;47.490;8.736;2023-03-23T05:03:53;96038.20;;;9.92;71.43
72118;BME280;59992;47.490;8.736;2023-03-23T05:06:41;96035.18;;;9.91;70.80
72118;BME280;59992;47.490;8.736;2023-03-23T05:09:34;96034.48;;;9.89;71.32
72118;BME280;59992;47.490;8.736;2023-03-23T05:12:22;96036.62;;;9.92;70.61
72118;BME280;59992;47.490;8.736;2023-03-23T05:15:12;96044.34;;;9.93;70.77
72118;BME280;59992;47.490;8.736;2023-03-23T05:18:01;96044.27;;;9.92;70.80
72118;BME280;59992;47.490;8.736;2023-03-23T05:20:49;96042.31;;;9.97;68.57
72118;BME280;59992;47.490;8.736;2023-03-23T05:23:40;96040.96;;;10.08;68.69
72118;BME280;59992;47.490;8.736;2023-03-23T05:26:28;96042.05;;;10.20;68.19
72118;BME280;59992;47.490;8.736;2023-03-23T05:29:17;96037.80;;;10.32;65.86
72118;BME280;59992;47.490;8.736;2023-03-23T05:32:05;96045.70;;;10.52;65.88
72118;BME280;59992;47.490;8.736;2023-03-23T05:34:55;96053.33;;;10.64;66.26
72118;BME280;59992;47.490;8.736;2023-03-23T05:37:44;96052.90;;;10.71;65.72
72118;BME280;59992;47.490;8.736;2023-03-23T05:40:33;96053.08;;;10.77;65.72
72118;BME280;59992;47.490;8.736;2023-03-23T05:43:21;96059.00;;;10.82;65.21
72118;BME280;59992;47.490;8.736;2023-03-23T05:46:10;96053.80;;;10.87;64.14
72118;BME280;59992;47.490;8.736;2023-03-23T05:48:58;96060.58;;;10.97;64.43
72118;BME280;59992;47.490;8.736;2023-03-23T05:51:47;96071.89;;;11.03;64.99
72118;BME280;59992;47.490;8.736;2023-03-23T05:54:37;96076.29;;;11.08;65.34
72118;BME280;59992;47.490;8.736;2023-03-23T05:57:25;96077.66;;;11.13;61.92
72118;BME280;59992;47.490;8.736;2023-03-23T06:00:15;96078.86;;;11.29;62.36
72118;BME280;59992;47.490;8.736;2023-03-23T06:03:07;96076.38;;;11.40;62.77
72118;BME280;59992;47.490;8.736;2023-03-23T06:05:55;96075.09;;;11.50;60.96
72118;BME280;59992;47.490;8.736;2023-03-23T06:08:43;96079.29;;;11.60;61.20
72118;BME280;59992;47.490;8.736;2023-03-23T06:11:32;96081.45;;;11.71;61.11
72118;BME280;59992;47.490;8.736;2023-03-23T06:14:23;96082.05;;;11.81;59.70
72118;BME280;59992;47.490;8.736;2023-03-23T06:17:25;96079.11;;;11.88;60.13
72118;BME280;59992;47.490;8.736;2023-03-23T06:20:14;96077.50;;;12.03;59.69
72118;BME280;59992;47.490;8.736;2023-03-23T06:23:02;96078.63;;;12.15;59.83
72118;BME280;59992;47.490;8.736;2023-03-23T06:25:54;96078.91;;;12.26;59.22
72118;BME280;59992;47.490;8.736;2023-03-23T06:28:43;96085.58;;;12.39;56.60
72118;BME280;59992;47.490;8.736;2023-03-23T06:31:34;96086.67;;;12.60;54.00
72118;BME280;59992;47.490;8.736;2023-03-23T06:34:22;96089.64;;;12.82;56.56
72118;BME280;59992;47.490;8.736;2023-03-23T06:37:11;96088.98;;;12.96;56.41
72118;BME280;59992;47.490;8.736;2023-03-23T06:39:59;96091.54;;;13.13;53.53
72118;BME280;59992;47.490;8.736;2023-03-23T06:42:48;96097.30;;;13.27;53.72
72118;BME280;59992;47.490;8.736;2023-03-23T06:45:36;96097.48;;;13.39;53.53
72118;BME280;59992;47.490;8.736;2023-03-23T06:48:25;96095.59;;;13.50;54.14
72118;BME280;59992;47.490;8.736;2023-03-23T06:51:13;96093.06;;;13.64;53.48
72118;BME280;59992;47.490;8.736;2023-03-23T06:54:01;96090.92;;;13.76;50.86
72118;BME280;59992;47.490;8.736;2023-03-23T06:56:49;96087.38;;;13.93;51.94
72118;BME280;59992;47.490;8.736;2023-03-23T06:59:37;96082.16;;;14.08;52.79
72118;BME280;59992;47.490;8.736;2023-03-23T07:02:25;96089.27;;;14.21;51.76
72118;BME280;59992;47.490;8.736;2023-03-23T07:05:14;96088.91;;;14.30;51.13
72118;BME280;59992;47.490;8.736;2023-03-23T07:08:02;96092.50;;;14.38;49.47
72118;BME280;59992;47.490;8.736;2023-03-23T07:10:51;96094.08;;;14.48;50.79
72118;BME280;59992;47.490;8.736;2023-03-23T07:13:40;96100.83;;;14.59;50.18
72118;BME280;59992;47.490;8.736;2023-03-23T07:16:28;96099.69;;;14.66;49.74
72118;BME280;59992;47.490;8.736;2023-03-23T07:19:17;96106.44;;;14.76;50.57
72118;BME280;59992;47.490;8.736;2023-03-23T07:22:06;96112.83;;;14.85;49.37
72118;BME280;59992;47.490;8.736;2023-03-23T07:24:54;96112.59;;;15.00;49.50
72118;BME280;59992;47.490;8.736;2023-03-23T07:27:43;96104.23;;;15.16;49.28
72118;BME280;59992;47.490;8.736;2023-03-23T07:30:32;96106.70;;;15.37;48.46
72118;BME280;59992;47.490;8.736;2023-03-23T07:33:20;96113.77;;;15.54;49.36
72118;BME280;59992;47.490;8.736;2023-03-23T07:36:10;96110.78;;;15.66;48.21
72118;BME280;59992;47.490;8.736;2023-03-23T07:38:59;96116.77;;;15.73;47.62
72118;BME280;59992;47.490;8.736;2023-03-23T07:41:48;96120.58;;;15.79;47.07
72118;BME280;59992;47.490;8.736;2023-03-23T07:44:37;96126.26;;;15.92;48.23
72118;BME280;59992;47.490;8.736;2023-03-23T07:47:25;96131.58;;;16.00;46.81
72118;BME280;59992;47.490;8.736;2023-03-23T07:50:14;96135.91;;;16.06;46.91
72118;BME280;59992;47.490;8.736;2023-03-23T07:53:02;96134.09;;;16.10;46.96
72118;BME280;59992;47.490;8.736;2023-03-23T07:55:51;96132.09;;;16.20;45.90
72118;BME280;59992;47.490;8.736;2023-03-23T07:58:40;96135.52;;;16.26;46.43
72118;BME280;59992;47.490;8.736;2023-03-23T08:01:30;96138.05;;;16.31;47.01
72118;BME280;59992;47.490;8.736;2023-03-23T08:04:18;96128.75;;;16.14;46.50
72118;BME280;59992;47.490;8.736;2023-03-23T08:07:06;96132.69;;;16.27;47.57
72118;BME280;59992;47.490;8.736;2023-03-23T08:09:54;96129.05;;;16.29;46.62
72118;BME280;59992;47.490;8.736;2023-03-23T08:12:43;96130.70;;;16.27;46.46
72118;BME280;59992;47.490;8.736;2023-03-23T08:15:32;96125.56;;;16.33;47.49
72118;BME280;59992;47.490;8.736;2023-03-23T08:18:24;96129.58;;;16.34;46.25
72118;BME280;59992;47.490;8.736;2023-03-23T08:21:13;96131.10;;;16.39;46.37
72118;BME280;59992;47.490;8.736;2023-03-23T08:24:02;96134.16;;;16.39;45.66
72118;BME280;59992;47.490;8.736;2023-03-23T08:26:50;96137.13;;;16.45;45.74
72118;BME280;59992;47.490;8.736;2023-03-23T08:29:38;96146.10;;;16.48;45.82
72118;BME280;59992;47.490;8.736;2023-03-23T08:32:28;96142.39;;;16.45;45.83
72118;BME280;59992;47.490;8.736;2023-03-23T08:35:18;96141.00;;;16.52;46.43
72118;BME280;59992;47.490;8.736;2023-03-23T08:38:06;96140.39;;;16.47;45.15
72118;BME280;59992;47.490;8.736;2023-03-23T08:40:58;96140.52;;;16.48;45.21
72118;BME280;59992;47.490;8.736;2023-03-23T08:43:46;96147.66;;;16.64;45.34
72118;BME280;59992;47.490;8.736;2023-03-23T08:46:34;96150.73;;;16.72;44.37
72118;BME280;59992;47.490;8.736;2023-03-23T08:49:23;96150.44;;;16.88;45.56
72118;BME280;59992;47.490;8.736;2023-03-23T08:52:13;96150.23;;;16.99;44.22
72118;BME280;59992;47.490;8.736;2023-03-23T08:55:01;96152.33;;;17.07;44.43
72118;BME280;59992;47.490;8.736;2023-03-23T08:57:49;96162.88;;;17.23;44.85
72118;BME280;59992;47.490;8.736;2023-03-23T09:00:37;96167.95;;;17.37;43.65
72118;BME280;59992;47.490;8.736;2023-03-23T09:03:25;96170.23;;;17.46;43.57
72118;BME280;59992;47.490;8.736;2023-03-23T09:06:14;96172.53;;;17.58;44.20
72118;BME280;59992;47.490;8.736;2023-03-23T09:09:06;96174.91;;;17.69;44.81
72118;BME280;59992;47.490;8.736;2023-03-23T09:11:54;96181.04;;;17.69;42.74
72118;BME280;59992;47.490;8.736;2023-03-23T09:14:42;96179.02;;;17.84;44.24
72118;BME280;59992;47.490;8.736;2023-03-23T09:17:31;96180.77;;;17.91;43.69
72118;BME280;59992;47.490;8.736;2023-03-23T09:20:21;96186.16;;;18.01;43.47
72118;BME280;59992;47.490;8.736;2023-03-23T09:23:11;96186.77;;;18.01;42.99
72118;BME280;59992;47.490;8.736;2023-03-23T09:26:01;96188.04;;;17.96;42.44
72118;BME280;59992;47.490;8.736;2023-03-23T09:28:51;96188.69;;;17.87;42.51
72118;BME280;59992;47.490;8.736;2023-03-23T09:31:42;96188.14;;;17.91;43.60
72118;BME280;59992;47.490;8.736;2023-03-23T09:34:30;96179.98;;;17.99;42.34
72118;BME280;59992;47.490;8.736;2023-03-23T09:37:18;96186.54;;;18.11;42.95
72118;BME280;59992;47.490;8.736;2023-03-23T09:40:15;96183.19;;;18.14;42.66
72118;BME280;59992;47.490;8.736;2023-03-23T09:46:49;96188.61;;;18.25;43.31
72118;BME280;59992;47.490;8.736;2023-03-23T09:49:42;96191.25;;;18.27;41.82
72118;BME280;59992;47.490;8.736;2023-03-23T09:52:38;96196.41;;;18.09;42.77
72118;BME280;59992;47.490;8.736;2023-03-23T09:55:28;96199.73;;;18.11;42.85
72118;BME280;59992;47.490;8.736;2023-03-23T09:58:20;96198.52;;;18.21;43.58
72118;BME280;59992;47.490;8.736;2023-03-23T10:01:15;96200.17;;;18.26;42.71
72118;BME280;59992;47.490;8.736;2023-03-23T10:04:12;96205.44;;;18.40;42.37
72118;BME280;59992;47.490;8.736;2023-03-23T10:07:13;96211.08;;;18.42;42.66
72118;BME280;59992;47.490;8.736;2023-03-23T10:10:11;96223.09;;;18.36;42.29
72118;BME280;59992;47.490;8.736;2023-03-23T10:13:04;96228.02;;;18.43;42.34
72118;BME280;59992;47.490;8.736;2023-03-23T10:15:57;96234.82;;;18.39;41.72
72118;BME280;59992;47.490;8.736;2023-03-23T10:18:52;96235.91;;;18.39;41.79
72118;BME280;59992;47.490;8.736;2023-03-23T10:21:47;96237.43;;;18.25;41.67
72118;BME280;59992;47.490;8.736;2023-03-23T10:24:41;96238.53;;;18.18;42.94
72118;BME280;59992;47.490;8.736;2023-03-23T10:27:36;96241.76;;;18.10;46.03
72118;BME280;59992;47.490;8.736;2023-03-23T10:30:30;96242.06;;;18.11;47.88
72118;BME280;59992;47.490;8.736;2023-03-23T10:33:25;96243.73;;;17.97;47.76
72118;BME280;59992;47.490;8.736;2023-03-23T10:36:22;96232.70;;;17.71;47.38
72118;BME280;59992;47.490;8.736;2023-03-23T10:39:14;96231.88;;;17.62;48.00
72118;BME280;59992;47.490;8.736;2023-03-23T10:42:05;96226.73;;;17.55;48.35
72118;BME280;59992;47.490;8.736;2023-03-23T10:44:56;96226.89;;;17.55;48.70
72118;BME280;59992;47.490;8.736;2023-03-23T10:47:49;96222.17;;;17.50;48.45
72118;BME280;59992;47.490;8.736;2023-03-23T10:50:39;96226.11;;;17.48;48.33
72118;BME280;59992;47.490;8.736;2023-03-23T10:53:32;96233.94;;;17.51;49.43
72118;BME280;59992;47.490;8.736;2023-03-23T10:56:23;96223.65;;;17.49;48.46
72118;BME280;59992;47.490;8.736;2023-03-23T10:59:14;96212.86;;;17.48;47.97
72118;BME280;59992;47.490;8.736;2023-03-23T11:02:13;96207.20;;;17.55;47.42
72118;BME280;59992;47.490;8.736;2023-03-23T11:05:13;96207.64;;;17.64;45.32
72118;BME280;59992;47.490;8.736;2023-03-23T11:08:11;96207.27;;;17.67;46.82
72118;BME280;59992;47.490;8.736;2023-03-23T11:11:10;96199.22;;;17.79;46.01
72118;BME280;59992;47.490;8.736;2023-03-23T11:14:00;96207.05;;;17.95;46.04
72118;BME280;59992;47.490;8.736;2023-03-23T11:16:53;96197.58;;;18.12;44.87
72118;BME280;59992;47.490;8.736;2023-03-23T11:19:43;96202.25;;;18.25;44.60
72118;BME280;59992;47.490;8.736;2023-03-23T11:22:33;96205.58;;;18.34;43.83
72118;BME280;59992;47.490;8.736;2023-03-23T11:25:23;96221.17;;;18.43;44.56
72118;BME280;59992;47.490;8.736;2023-03-23T11:28:11;96219.74;;;18.46;44.13
72118;BME280;59992;47.490;8.736;2023-03-23T11:31:02;96210.74;;;18.53;43.30
72118;BME280;59992;47.490;8.736;2023-03-23T11:33:56;96209.64;;;18.64;43.77
72118;BME280;59992;47.490;8.736;2023-03-23T11:36:49;96205.95;;;18.70;41.83
72118;BME280;59992;47.490;8.736;2023-03-23T11:39:48;96209.42;;;18.79;41.65
72118;BME280;59992;47.490;8.736;2023-03-23T11:42:42;96199.89;;;18.61;40.90
72118;BME280;59992;47.490;8.736;2023-03-23T11:45:35;96201.77;;;18.50;41.29
72118;BME280;59992;47.490;8.736;2023-03-23T11:48:30;96197.94;;;18.56;42.71
72118;BME280;59992;47.490;8.736;2023-03-23T11:51:26;96195.42;;;18.65;42.03
72118;BME280;59992;47.490;8.736;2023-03-23T11:54:19;96197.10;;;18.81;42.43
72118;BME280;59992;47.490;8.736;2023-03-23T11:57:11;96200.80;;;18.90;41.12
72118;BME280;59992;47.490;8.736;2023-03-23T12:00:01;96211.63;;;19.02;41.64
72118;BME280;59992;47.490;8.736;2023-03-23T12:03:11;96216.64;;;19.03;41.09
72118;BME280;59992;47.490;8.736;2023-03-23T12:06:06;96202.90;;;19.09;40.17
72118;BME280;59992;47.490;8.736;2023-03-23T12:09:07;96197.11;;;19.13;40.24
72118;BME280;59992;47.490;8.736;2023-03-23T12:12:08;96198.54;;;18.94;39.85
72118;BME280;59992;47.490;8.736;2023-03-23T12:15:08;96182.44;;;19.02;39.86
72118;BME280;59992;47.490;8.736;2023-03-23T12:18:06;96186.73;;;18.96;39.99
72118;BME280;59992;47.490;8.736;2023-03-23T12:21:06;96173.11;;;18.98;39.96
72118;BME280;59992;47.490;8.736;2023-03-23T12:24:05;96181.40;;;19.12;40.56
72118;BME280;59992;47.490;8.736;2023-03-23T12:27:01;96168.52;;;19.09;39.46
72118;BME280;59992;47.490;8.736;2023-03-23T12:30:02;96167.81;;;19.15;40.50
72118;BME280;59992;47.490;8.736;2023-03-23T12:33:13;96167.08;;;19.25;39.87
72118;BME280;59992;47.490;8.736;2023-03-23T12:36:11;96167.64;;;19.44;39.83
72118;BME280;59992;47.490;8.736;2023-03-23T12:39:30;96161.33;;;19.48;39.02
72118;BME280;59992;47.490;8.736;2023-03-23T12:42:30;96154.64;;;19.64;40.45
72118;BME280;59992;47.490;8.736;2023-03-23T12:45:37;96155.69;;;19.80;39.47
72118;BME280;59992;47.490;8.736;2023-03-23T12:48:31;96159.61;;;19.88;39.25
72118;BME280;59992;47.490;8.736;2023-03-23T12:51:26;96155.18;;;19.90;38.73
72118;BME280;59992;47.490;8.736;2023-03-23T12:54:23;96144.45;;;19.89;38.51
72118;BME280;59992;47.490;8.736;2023-03-23T12:57:18;96150.31;;;19.96;38.82
72118;BME280;59992;47.490;8.736;2023-03-23T13:00:17;96140.90;;;19.89;38.10
72118;BME280;59992;47.490;8.736;2023-03-23T13:03:17;96150.05;;;19.84;38.21
72118;BME280;59992;47.490;8.736;2023-03-23T13:06:15;96150.80;;;19.76;38.58
72118;BME280;59992;47.490;8.736;2023-03-23T13:09:11;96145.56;;;19.69;38.16
72118;BME280;59992;47.490;8.736;2023-03-23T13:12:03;96140.85;;;19.67;38.41
72118;BME280;59992;47.490;8.736;2023-03-23T13:15:00;96133.82;;;19.71;38.87
72118;BME280;59992;47.490;8.736;2023-03-23T13:17:58;96133.33;;;19.62;39.76
72118;BME280;59992;47.490;8.736;2023-03-23T13:21:00;96129.95;;;19.62;38.99
72118;BME280;59992;47.490;8.736;2023-03-23T13:23:55;96124.09;;;19.53;39.27
72118;BME280;59992;47.490;8.736;2023-03-23T13:26:45;96134.29;;;19.48;38.90
72118;BME280;59992;47.490;8.736;2023-03-23T13:29:35;96140.69;;;19.36;39.03
72118;BME280;59992;47.490;8.736;2023-03-23T13:32:32;96142.67;;;19.27;39.33
72118;BME280;59992;47.490;8.736;2023-03-23T13:35:21;96153.48;;;19.08;40.00
72118;BME280;59992;47.490;8.736;2023-03-23T13:38:21;96147.61;;;18.96;40.20
72118;BME280;59992;47.490;8.736;2023-03-23T13:41:11;96129.42;;;18.90;40.21
72118;BME280;59992;47.490;8.736;2023-03-23T13:44:18;96133.03;;;18.81;42.29
72118;BME280;59992;47.490;8.736;2023-03-23T13:47:20;96138.61;;;18.61;42.53
72118;BME280;59992;47.490;8.736;2023-03-23T13:50:24;96145.15;;;18.45;43.79
72118;BME280;59992;47.490;8.736;2023-03-23T13:53:21;96149.39;;;18.27;48.00
72118;BME280;59992;47.490;8.736;2023-03-23T13:56:17;96135.60;;;18.04;48.79
72118;BME280;59992;47.490;8.736;2023-03-23T13:59:08;96132.41;;;17.99;50.57
72118;BME280;59992;47.490;8.736;2023-03-23T14:02:31;96127.95;;;17.96;47.35
72118;BME280;59992;47.490;8.736;2023-03-23T14:05:32;96125.84;;;17.95;46.05
72118;BME280;59992;47.490;8.736;2023-03-23T14:08:23;96124.97;;;17.79;49.38
72118;BME280;59992;47.490;8.736;2023-03-23T14:11:15;96121.59;;;17.69;47.62
72118;BME280;59992;47.490;8.736;2023-03-23T14:14:05;96117.21;;;17.77;48.22
72118;BME280;59992;47.490;8.736;2023-03-23T14:17:07;96116.27;;;17.78;49.10
72118;BME280;59992;47.490;8.736;2023-03-23T14:19:58;96107.57;;;17.83;47.03
72118;BME280;59992;47.490;8.736;2023-03-23T14:22:46;96106.42;;;17.80;47.39
72118;BME280;59992;47.490;8.736;2023-03-23T14:25:34;96103.45;;;17.75;47.46
72118;BME280;59992;47.490;8.736;2023-03-23T14:28:23;96111.23;;;17.80;48.00
72118;BME280;59992;47.490;8.736;2023-03-23T14:31:17;96113.19;;;17.79;47.84
72118;BME280;59992;47.490;8.736;2023-03-23T14:34:13;96112.27;;;17.75;47.40
72118;BME280;59992;47.490;8.736;2023-03-23T14:37:02;96105.84;;;17.68;46.19
72118;BME280;59992;47.490;8.736;2023-03-23T14:39:53;96113.16;;;17.80;46.34
72118;BME280;59992;47.490;8.736;2023-03-23T14:42:42;96111.91;;;17.78;45.19
72118;BME280;59992;47.490;8.736;2023-03-23T14:45:32;96113.52;;;17.70;45.98
72118;BME280;59992;47.490;8.736;2023-03-23T14:48:20;96115.66;;;17.67;45.17
72118;BME280;59992;47.490;8.736;2023-03-23T14:51:18;96115.91;;;17.63;45.53
72118;BME280;59992;47.490;8.736;2023-03-23T14:54:08;96115.46;;;17.73;45.68
72118;BME280;59992;47.490;8.736;2023-03-23T14:57:05;96116.20;;;17.74;45.13
72118;BME280;59992;47.490;8.736;2023-03-23T14:59:58;96109.70;;;17.73;45.02
72118;BME280;59992;47.490;8.736;2023-03-23T15:02:50;96111.27;;;17.72;44.99
72118;BME280;59992;47.490;8.736;2023-03-23T15:05:43;96110.05;;;17.72;44.14
72118;BME280;59992;47.490;8.736;2023-03-23T15:08:34;96108.48;;;17.77;44.40
72118;BME280;59992;47.490;8.736;2023-03-23T15:15:24;96097.33;;;17.62;43.58
72118;BME280;59992;47.490;8.736;2023-03-23T15:18:34;96101.08;;;17.61;43.77
72118;BME280;59992;47.490;8.736;2023-03-23T15:21:29;96095.05;;;17.64;43.94
72118;BME280;59992;47.490;8.736;2023-03-23T15:24:31;96094.18;;;17.62;44.32